sensor_id;sensor_type;location;lat;lon;timestamp;temperature;humidity
56753;DHT22;42627;42.646;23.642;2022-07-06T00:01:45;20.40;99.90
56753;DHT22;42627;42.646;23.642;2022-07-06T00:03:46;20.40;99.90
56753;DHT22;42627;42.646;23.642;2022-07-06T00:05:47;20.30;99.90
56753;DHT22;42627;42.646;23.642;2022-07-06T00:07:47;20.30;99.90
56753;DHT22;42627;42.646;23.642;2022-07-06T00:09:48;20.30;99.90
56753;DHT22;42627;42.646;23.642;2022-07-06T00:11:48;20.30;99.90
56753;DHT22;42627;42.646;23.642;2022-07-06T00:16:06;20.30;99.90
56753;DHT22;42627;42.646;23.642;2022-07-06T00:18:07;20.40;99.90
56753;DHT22;42627;42.646;23.642;2022-07-06T00:20:08;20.40;99.90
56753;DHT22;42627;42.646;23.642;2022-07-06T00:22:09;20.40;99.90
56753;DHT22;42627;42.646;23.642;2022-07-06T00:24:09;20.40;99.90
56753;DHT22;42627;42.646;23.642;2022-07-06T00:26:10;20.30;99.90
56753;DHT22;42627;42.646;23.642;2022-07-06T00:28:11;20.40;99.90
56753;DHT22;42627;42.646;23.642;2022-07-06T00:30:24;20.30;99.90
56753;DHT22;42627;42.646;23.642;2022-07-06T00:32:36;20.40;99.90
56753;DHT22;42627;42.646;23.642;2022-07-06T00:34:43;20.40;99.90
56753;DHT22;42627;42.646;23.642;2022-07-06T00:36:43;20.30;99.90
56753;DHT22;42627;42.646;23.642;2022-07-06T00:38:44;20.20;99.90
56753;DHT22;42627;42.646;23.642;2022-07-06T00:40:45;20.10;99.90
56753;DHT22;42627;42.646;23.642;2022-07-06T00:42:47;20.10;99.90
56753;DHT22;42627;42.646;23.642;2022-07-06T00:44:48;20.10;99.90
56753;DHT22;42627;42.646;23.642;2022-07-06T00:46:49;20.00;99.90
56753;DHT22;42627;42.646;23.642;2022-07-06T00:48:49;20.00;99.90
56753;DHT22;42627;42.646;23.642;2022-07-06T00:50:50;19.90;99.90
56753;DHT22;42627;42.646;23.642;2022-07-06T00:52:55;20.00;99.90
56753;DHT22;42627;42.646;23.642;2022-07-06T00:54:57;20.10;99.90
56753;DHT22;42627;42.646;23.642;2022-07-06T00:56:58;20.10;99.90
56753;DHT22;42627;42.646;23.642;2022-07-06T01:01:14;20.10;99.90
56753;DHT22;42627;42.646;23.642;2022-07-06T01:03:14;20.10;99.90
56753;DHT22;42627;42.646;23.642;2022-07-06T01:05:15;20.10;99.90
56753;DHT22;42627;42.646;23.642;2022-07-06T01:09:36;19.90;99.90
56753;DHT22;42627;42.646;23.642;2022-07-06T01:11:55;19.80;99.90
56753;DHT22;42627;42.646;23.642;2022-07-06T01:14:09;19.80;99.90
56753;DHT22;42627;42.646;23.642;2022-07-06T01:16:09;19.90;99.90
56753;DHT22;42627;42.646;23.642;2022-07-06T01:18:10;19.80;99.90
56753;DHT22;42627;42.646;23.642;2022-07-06T01:20:14;19.70;99.90
56753;DHT22;42627;42.646;23.642;2022-07-06T01:22:15;19.70;99.90
56753;DHT22;42627;42.646;23.642;2022-07-06T01:24:16;19.70;99.90
56753;DHT22;42627;42.646;23.642;2022-07-06T01:26:18;19.70;99.90
56753;DHT22;42627;42.646;23.642;2022-07-06T01:28:19;19.70;99.90
56753;DHT22;42627;42.646;23.642;2022-07-06T01:30:26;19.80;99.90
56753;DHT22;42627;42.646;23.642;2022-07-06T01:32:27;19.60;99.90
56753;DHT22;42627;42.646;23.642;2022-07-06T01:34:27;19.50;99.90
56753;DHT22;42627;42.646;23.642;2022-07-06T01:36:28;19.50;99.90
56753;DHT22;42627;42.646;23.642;2022-07-06T01:38:29;19.40;99.90
56753;DHT22;42627;42.646;23.642;2022-07-06T01:40:48;19.50;99.90
56753;DHT22;42627;42.646;23.642;2022-07-06T01:45:43;19.40;99.90
56753;DHT22;42627;42.646;23.642;2022-07-06T01:47:44;19.40;99.90
56753;DHT22;42627;42.646;23.642;2022-07-06T01:49:45;19.40;99.90
56753;DHT22;42627;42.646;23.642;2022-07-06T01:51:46;19.30;99.90
56753;DHT22;42627;42.646;23.642;2022-07-06T01:53:47;19.20;99.90
56753;DHT22;42627;42.646;23.642;2022-07-06T01:55:48;19.10;99.90
56753;DHT22;42627;42.646;23.642;2022-07-06T01:57:49;18.90;99.90
56753;DHT22;42627;42.646;23.642;2022-07-06T01:59:55;18.90;99.90
56753;DHT22;42627;42.646;23.642;2022-07-06T02:01:55;18.80;99.90
56753;DHT22;42627;42.646;23.642;2022-07-06T02:03:56;18.90;99.90
56753;DHT22;42627;42.646;23.642;2022-07-06T02:05:57;19.00;99.90
56753;DHT22;42627;42.646;23.642;2022-07-06T02:07:57;19.10;99.90
56753;DHT22;42627;42.646;23.642;2022-07-06T02:10:26;19.10;99.90
56753;DHT22;42627;42.646;23.642;2022-07-06T02:12:45;19.10;99.90
56753;DHT22;42627;42.646;23.642;2022-07-06T02:14:46;19.10;99.90
56753;DHT22;42627;42.646;23.642;2022-07-06T02:16:47;19.20;99.90
56753;DHT22;42627;42.646;23.642;2022-07-06T02:18:48;19.20;99.90
56753;DHT22;42627;42.646;23.642;2022-07-06T02:20:49;19.20;99.90
56753;DHT22;42627;42.646;23.642;2022-07-06T02:22:49;19.30;99.90
56753;DHT22;42627;42.646;23.642;2022-07-06T02:24:50;19.30;99.90
56753;DHT22;42627;42.646;23.642;2022-07-06T02:26:51;19.30;99.90
56753;DHT22;42627;42.646;23.642;2022-07-06T02:28:51;19.20;99.90
56753;DHT22;42627;42.646;23.642;2022-07-06T02:30:52;19.20;99.90
56753;DHT22;42627;42.646;23.642;2022-07-06T02:32:53;19.20;99.90
56753;DHT22;42627;42.646;23.642;2022-07-06T02:34:54;19.20;99.90
56753;DHT22;42627;42.646;23.642;2022-07-06T02:36:54;19.20;99.90
56753;DHT22;42627;42.646;23.642;2022-07-06T02:39:16;19.20;99.90
56753;DHT22;42627;42.646;23.642;2022-07-06T02:41:48;19.20;99.90
56753;DHT22;42627;42.646;23.642;2022-07-06T02:43:53;19.20;99.90
56753;DHT22;42627;42.646;23.642;2022-07-06T02:45:54;19.40;99.90
56753;DHT22;42627;42.646;23.642;2022-07-06T02:47:54;19.40;99.90
56753;DHT22;42627;42.646;23.642;2022-07-06T02:49:56;19.40;99.90
56753;DHT22;42627;42.646;23.642;2022-07-06T02:51:57;19.40;99.90
56753;DHT22;42627;42.646;23.642;2022-07-06T02:53:57;19.40;99.90
56753;DHT22;42627;42.646;23.642;2022-07-06T02:55:58;19.30;99.90
56753;DHT22;42627;42.646;23.642;2022-07-06T03:00:09;19.30;99.90
56753;DHT22;42627;42.646;23.642;2022-07-06T03:02:10;19.30;99.90
56753;DHT22;42627;42.646;23.642;2022-07-06T03:04:11;19.30;99.90
56753;DHT22;42627;42.646;23.642;2022-07-06T03:06:11;19.40;99.90
56753;DHT22;42627;42.646;23.642;2022-07-06T03:08:30;19.40;99.90
56753;DHT22;42627;42.646;23.642;2022-07-06T03:10:55;19.50;99.90
56753;DHT22;42627;42.646;23.642;2022-07-06T03:12:55;19.50;99.90
56753;DHT22;42627;42.646;23.642;2022-07-06T03:14:56;19.60;99.90
56753;DHT22;42627;42.646;23.642;2022-07-06T03:16:57;19.60;99.90
56753;DHT22;42627;42.646;23.642;2022-07-06T03:18:57;19.60;99.90
56753;DHT22;42627;42.646;23.642;2022-07-06T03:20:58;19.60;99.90
56753;DHT22;42627;42.646;23.642;2022-07-06T03:22:59;19.60;99.90
56753;DHT22;42627;42.646;23.642;2022-07-06T03:24:59;19.60;99.90
56753;DHT22;42627;42.646;23.642;2022-07-06T03:27:03;19.70;99.90
56753;DHT22;42627;42.646;23.642;2022-07-06T03:29:04;19.60;99.90
56753;DHT22;42627;42.646;23.642;2022-07-06T03:31:04;19.60;99.90
56753;DHT22;42627;42.646;23.642;2022-07-06T03:33:05;19.60;99.90
56753;DHT22;42627;42.646;23.642;2022-07-06T03:35:06;19.70;99.90
56753;DHT22;42627;42.646;23.642;2022-07-06T03:37:07;19.70;99.90
56753;DHT22;42627;42.646;23.642;2022-07-06T03:39:11;19.70;99.90
56753;DHT22;42627;42.646;23.642;2022-07-06T03:41:11;19.60;99.90
56753;DHT22;42627;42.646;23.642;2022-07-06T03:43:18;19.60;99.90
56753;DHT22;42627;42.646;23.642;2022-07-06T03:45:19;19.60;99.90
56753;DHT22;42627;42.646;23.642;2022-07-06T03:47:19;19.60;99.90
56753;DHT22;42627;42.646;23.642;2022-07-06T03:49:21;19.60;99.90
56753;DHT22;42627;42.646;23.642;2022-07-06T03:51:21;19.60;99.90
56753;DHT22;42627;42.646;23.642;2022-07-06T03:53:22;19.60;99.90
56753;DHT22;42627;42.646;23.642;2022-07-06T03:55:23;19.60;99.90
56753;DHT22;42627;42.646;23.642;2022-07-06T03:57:39;19.50;99.90
56753;DHT22;42627;42.646;23.642;2022-07-06T03:59:40;19.50;99.90
56753;DHT22;42627;42.646;23.642;2022-07-06T04:01:41;19.50;99.90
56753;DHT22;42627;42.646;23.642;2022-07-06T04:03:42;19.50;99.90
56753;DHT22;42627;42.646;23.642;2022-07-06T04:05:43;19.50;99.90
56753;DHT22;42627;42.646;23.642;2022-07-06T04:07:58;19.50;99.90
56753;DHT22;42627;42.646;23.642;2022-07-06T04:10:23;19.40;99.90
56753;DHT22;42627;42.646;23.642;2022-07-06T04:12:27;19.40;99.90
56753;DHT22;42627;42.646;23.642;2022-07-06T04:14:27;19.40;99.90
56753;DHT22;42627;42.646;23.642;2022-07-06T04:16:28;19.40;99.90
56753;DHT22;42627;42.646;23.642;2022-07-06T04:18:28;19.40;99.90
56753;DHT22;42627;42.646;23.642;2022-07-06T04:20:29;19.30;99.90
56753;DHT22;42627;42.646;23.642;2022-07-06T04:22:30;19.40;99.90
56753;DHT22;42627;42.646;23.642;2022-07-06T04:24:31;19.40;99.90
56753;DHT22;42627;42.646;23.642;2022-07-06T04:26:40;19.50;99.90
56753;DHT22;42627;42.646;23.642;2022-07-06T04:28:41;19.50;99.90
56753;DHT22;42627;42.646;23.642;2022-07-06T04:30:41;19.50;99.90
56753;DHT22;42627;42.646;23.642;2022-07-06T04:32:42;19.50;99.90
56753;DHT22;42627;42.646;23.642;2022-07-06T04:34:43;19.40;99.90
56753;DHT22;42627;42.646;23.642;2022-07-06T04:37:01;19.40;99.90
56753;DHT22;42627;42.646;23.642;2022-07-06T04:39:25;19.40;99.90
56753;DHT22;42627;42.646;23.642;2022-07-06T04:41:44;19.40;99.90
56753;DHT22;42627;42.646;23.642;2022-07-06T04:43:45;19.50;99.90
56753;DHT22;42627;42.646;23.642;2022-07-06T04:45:45;19.60;99.90
56753;DHT22;42627;42.646;23.642;2022-07-06T04:47:46;19.50;99.90
56753;DHT22;42627;42.646;23.642;2022-07-06T04:49:47;19.50;99.90
56753;DHT22;42627;42.646;23.642;2022-07-06T04:51:47;19.50;99.90
56753;DHT22;42627;42.646;23.642;2022-07-06T04:53:48;19.40;99.90
56753;DHT22;42627;42.646;23.642;2022-07-06T04:55:49;19.50;99.90
56753;DHT22;42627;42.646;23.642;2022-07-06T04:57:58;19.50;99.90
56753;DHT22;42627;42.646;23.642;2022-07-06T04:59:59;19.60;99.90
56753;DHT22;42627;42.646;23.642;2022-07-06T05:02:00;19.60;99.90
56753;DHT22;42627;42.646;23.642;2022-07-06T05:04:00;19.60;99.90
56753;DHT22;42627;42.646;23.642;2022-07-06T05:06:01;19.60;99.90
56753;DHT22;42627;42.646;23.642;2022-07-06T05:08:20;19.70;99.90
56753;DHT22;42627;42.646;23.642;2022-07-06T05:10:33;19.70;99.90
56753;DHT22;42627;42.646;23.642;2022-07-06T05:12:38;19.70;99.90
56753;DHT22;42627;42.646;23.642;2022-07-06T05:14:38;19.70;99.90
56753;DHT22;42627;42.646;23.642;2022-07-06T05:16:39;19.60;99.90
56753;DHT22;42627;42.646;23.642;2022-07-06T05:18:40;19.60;99.90
56753;DHT22;42627;42.646;23.642;2022-07-06T05:20:40;19.60;99.90
56753;DHT22;42627;42.646;23.642;2022-07-06T05:22:41;19.50;99.90
56753;DHT22;42627;42.646;23.642;2022-07-06T05:24:42;19.50;99.90
56753;DHT22;42627;42.646;23.642;2022-07-06T05:26:43;19.40;99.90
56753;DHT22;42627;42.646;23.642;2022-07-06T05:28:44;19.30;99.90
56753;DHT22;42627;42.646;23.642;2022-07-06T05:30:45;19.30;99.90
56753;DHT22;42627;42.646;23.642;2022-07-06T05:32:45;19.20;99.90
56753;DHT22;42627;42.646;23.642;2022-07-06T05:34:46;19.10;99.90
56753;DHT22;42627;42.646;23.642;2022-07-06T05:36:47;19.10;99.90
56753;DHT22;42627;42.646;23.642;2022-07-06T05:38:54;19.10;99.90
56753;DHT22;42627;42.646;23.642;2022-07-06T05:41:12;19.00;99.90
56753;DHT22;42627;42.646;23.642;2022-07-06T05:43:13;19.00;99.90
56753;DHT22;42627;42.646;23.642;2022-07-06T05:45:14;19.00;99.90
56753;DHT22;42627;42.646;23.642;2022-07-06T05:47:15;19.00;99.90
56753;DHT22;42627;42.646;23.642;2022-07-06T05:49:34;19.00;99.90
56753;DHT22;42627;42.646;23.642;2022-07-06T05:51:57;19.10;99.90
56753;DHT22;42627;42.646;23.642;2022-07-06T05:53:58;19.00;99.90
56753;DHT22;42627;42.646;23.642;2022-07-06T05:58:09;19.10;99.90
56753;DHT22;42627;42.646;23.642;2022-07-06T06:00:10;19.10;99.90
56753;DHT22;42627;42.646;23.642;2022-07-06T06:02:11;19.10;99.90
56753;DHT22;42627;42.646;23.642;2022-07-06T06:04:11;19.20;99.90
56753;DHT22;42627;42.646;23.642;2022-07-06T06:06:12;19.30;99.90
56753;DHT22;42627;42.646;23.642;2022-07-06T06:08:12;19.30;99.90
56753;DHT22;42627;42.646;23.642;2022-07-06T06:10:14;19.40;99.90
56753;DHT22;42627;42.646;23.642;2022-07-06T06:12:39;19.40;99.90
56753;DHT22;42627;42.646;23.642;2022-07-06T06:14:56;19.50;99.90
56753;DHT22;42627;42.646;23.642;2022-07-06T06:16:58;19.60;99.90
56753;DHT22;42627;42.646;23.642;2022-07-06T06:18:59;19.70;99.90
56753;DHT22;42627;42.646;23.642;2022-07-06T06:21:00;19.70;99.90
56753;DHT22;42627;42.646;23.642;2022-07-06T06:23:01;19.70;99.90
56753;DHT22;42627;42.646;23.642;2022-07-06T06:25:04;19.80;99.90
56753;DHT22;42627;42.646;23.642;2022-07-06T06:27:04;19.80;99.90
56753;DHT22;42627;42.646;23.642;2022-07-06T06:29:05;19.90;99.90
56753;DHT22;42627;42.646;23.642;2022-07-06T06:31:09;19.90;99.90
56753;DHT22;42627;42.646;23.642;2022-07-06T06:33:11;19.80;99.90
56753;DHT22;42627;42.646;23.642;2022-07-06T06:35:12;19.80;99.90
56753;DHT22;42627;42.646;23.642;2022-07-06T06:37:13;19.90;99.90
56753;DHT22;42627;42.646;23.642;2022-07-06T06:39:15;19.90;99.90
56753;DHT22;42627;42.646;23.642;2022-07-06T06:41:25;19.90;99.90
56753;DHT22;42627;42.646;23.642;2022-07-06T06:43:38;19.80;99.90
56753;DHT22;42627;42.646;23.642;2022-07-06T06:45:50;19.80;99.90
56753;DHT22;42627;42.646;23.642;2022-07-06T06:47:51;19.80;99.90
56753;DHT22;42627;42.646;23.642;2022-07-06T06:49:52;19.80;99.90
56753;DHT22;42627;42.646;23.642;2022-07-06T06:51:52;19.90;99.90
56753;DHT22;42627;42.646;23.642;2022-07-06T06:53:53;19.90;99.90
56753;DHT22;42627;42.646;23.642;2022-07-06T06:55:54;19.90;99.90
56753;DHT22;42627;42.646;23.642;2022-07-06T06:57:54;20.00;99.90
56753;DHT22;42627;42.646;23.642;2022-07-06T06:59:56;20.00;99.90
56753;DHT22;42627;42.646;23.642;2022-07-06T07:02:03;20.00;99.90
56753;DHT22;42627;42.646;23.642;2022-07-06T07:04:04;20.00;99.90
56753;DHT22;42627;42.646;23.642;2022-07-06T07:06:06;20.00;99.90
56753;DHT22;42627;42.646;23.642;2022-07-06T07:08:07;20.10;99.90
56753;DHT22;42627;42.646;23.642;2022-07-06T07:10:08;20.10;99.90
56753;DHT22;42627;42.646;23.642;2022-07-06T07:12:24;20.10;99.90
56753;DHT22;42627;42.646;23.642;2022-07-06T07:14:39;20.20;99.90
56753;DHT22;42627;42.646;23.642;2022-07-06T07:16:45;20.20;99.90
56753;DHT22;42627;42.646;23.642;2022-07-06T07:18:46;20.20;99.90
56753;DHT22;42627;42.646;23.642;2022-07-06T07:20:46;20.20;99.90
56753;DHT22;42627;42.646;23.642;2022-07-06T07:22:47;20.20;99.90
56753;DHT22;42627;42.646;23.642;2022-07-06T07:24:47;20.20;99.90
56753;DHT22;42627;42.646;23.642;2022-07-06T07:26:48;20.30;99.90
56753;DHT22;42627;42.646;23.642;2022-07-06T07:28:49;20.40;99.90
56753;DHT22;42627;42.646;23.642;2022-07-06T07:30:55;20.40;99.90
56753;DHT22;42627;42.646;23.642;2022-07-06T07:32:55;20.50;99.90
56753;DHT22;42627;42.646;23.642;2022-07-06T07:34:56;20.60;99.90
56753;DHT22;42627;42.646;23.642;2022-07-06T07:36:57;20.60;99.90
56753;DHT22;42627;42.646;23.642;2022-07-06T07:38:58;20.70;99.90
56753;DHT22;42627;42.646;23.642;2022-07-06T07:41:22;20.80;99.90
56753;DHT22;42627;42.646;23.642;2022-07-06T07:46:57;20.90;99.90
56753;DHT22;42627;42.646;23.642;2022-07-06T07:48:58;21.10;99.90
56753;DHT22;42627;42.646;23.642;2022-07-06T07:50:58;21.10;99.90
56753;DHT22;42627;42.646;23.642;2022-07-06T07:52:59;21.30;99.90
56753;DHT22;42627;42.646;23.642;2022-07-06T07:55:00;21.40;99.90
56753;DHT22;42627;42.646;23.642;2022-07-06T07:57:00;21.40;99.90
56753;DHT22;42627;42.646;23.642;2022-07-06T07:59:01;21.40;99.90
56753;DHT22;42627;42.646;23.642;2022-07-06T08:01:06;21.50;99.90
56753;DHT22;42627;42.646;23.642;2022-07-06T08:03:07;21.50;99.90
56753;DHT22;42627;42.646;23.642;2022-07-06T08:05:08;21.60;99.90
56753;DHT22;42627;42.646;23.642;2022-07-06T08:07:09;21.70;99.90
56753;DHT22;42627;42.646;23.642;2022-07-06T08:09:09;21.80;99.90
56753;DHT22;42627;42.646;23.642;2022-07-06T08:11:22;21.90;99.90
56753;DHT22;42627;42.646;23.642;2022-07-06T08:13:34;22.00;99.90
56753;DHT22;42627;42.646;23.642;2022-07-06T08:15:41;22.10;99.90
56753;DHT22;42627;42.646;23.642;2022-07-06T08:17:42;22.20;99.90
56753;DHT22;42627;42.646;23.642;2022-07-06T08:19:43;22.20;99.90
56753;DHT22;42627;42.646;23.642;2022-07-06T08:21:44;22.20;99.90
56753;DHT22;42627;42.646;23.642;2022-07-06T08:23:44;22.20;99.90
56753;DHT22;42627;42.646;23.642;2022-07-06T08:25:45;22.10;99.90
56753;DHT22;42627;42.646;23.642;2022-07-06T08:27:46;22.10;99.90
56753;DHT22;42627;42.646;23.642;2022-07-06T08:29:46;22.20;99.90
56753;DHT22;42627;42.646;23.642;2022-07-06T08:31:47;22.20;98.10
56753;DHT22;42627;42.646;23.642;2022-07-06T08:33:48;22.10;99.90
56753;DHT22;42627;42.646;23.642;2022-07-06T08:35:49;22.20;99.90
56753;DHT22;42627;42.646;23.642;2022-07-06T08:37:49;22.20;99.90
56753;DHT22;42627;42.646;23.642;2022-07-06T08:39:50;22.30;99.90
56753;DHT22;42627;42.646;23.642;2022-07-06T08:41:51;22.40;99.90
56753;DHT22;42627;42.646;23.642;2022-07-06T08:43:52;22.50;99.90
56753;DHT22;42627;42.646;23.642;2022-07-06T08:45:58;22.60;99.60
56753;DHT22;42627;42.646;23.642;2022-07-06T08:48:04;22.60;99.90
56753;DHT22;42627;42.646;23.642;2022-07-06T08:50:06;22.70;99.90
56753;DHT22;42627;42.646;23.642;2022-07-06T08:52:07;22.70;96.70
56753;DHT22;42627;42.646;23.642;2022-07-06T08:54:08;22.80;99.90
56753;DHT22;42627;42.646;23.642;2022-07-06T08:56:29;22.90;96.40
56753;DHT22;42627;42.646;23.642;2022-07-06T08:58:39;22.90;96.30
56753;DHT22;42627;42.646;23.642;2022-07-06T09:00:45;22.90;96.00
56753;DHT22;42627;42.646;23.642;2022-07-06T09:02:46;23.00;96.60
56753;DHT22;42627;42.646;23.642;2022-07-06T09:04:47;23.10;94.60
56753;DHT22;42627;42.646;23.642;2022-07-06T09:06:49;23.10;93.80
56753;DHT22;42627;42.646;23.642;2022-07-06T09:08:54;23.00;95.00
56753;DHT22;42627;42.646;23.642;2022-07-06T09:10:55;23.10;94.60
56753;DHT22;42627;42.646;23.642;2022-07-06T09:13:02;23.10;93.20
56753;DHT22;42627;42.646;23.642;2022-07-06T09:15:04;23.10;92.80
56753;DHT22;42627;42.646;23.642;2022-07-06T09:17:06;23.20;95.20
56753;DHT22;42627;42.646;23.642;2022-07-06T09:19:07;23.20;93.60
56753;DHT22;42627;42.646;23.642;2022-07-06T09:21:08;23.20;93.00
56753;DHT22;42627;42.646;23.642;2022-07-06T09:23:09;23.20;94.40
56753;DHT22;42627;42.646;23.642;2022-07-06T09:25:13;23.20;93.70
56753;DHT22;42627;42.646;23.642;2022-07-06T09:27:17;23.20;92.20
56753;DHT22;42627;42.646;23.642;2022-07-06T09:29:18;23.30;94.80
56753;DHT22;42627;42.646;23.642;2022-07-06T09:31:41;23.30;94.50
56753;DHT22;42627;42.646;23.642;2022-07-06T09:34:06;23.40;95.60
56753;DHT22;42627;42.646;23.642;2022-07-06T09:36:08;23.50;93.60
56753;DHT22;42627;42.646;23.642;2022-07-06T09:38:10;23.50;92.70
56753;DHT22;42627;42.646;23.642;2022-07-06T09:40:18;23.50;92.70
56753;DHT22;42627;42.646;23.642;2022-07-06T09:42:24;23.50;95.30
56753;DHT22;42627;42.646;23.642;2022-07-06T09:44:31;23.70;95.20
56753;DHT22;42627;42.646;23.642;2022-07-06T09:46:42;23.70;94.30
56753;DHT22;42627;42.646;23.642;2022-07-06T09:48:43;23.60;91.90
56753;DHT22;42627;42.646;23.642;2022-07-06T09:50:47;23.60;91.80
56753;DHT22;42627;42.646;23.642;2022-07-06T09:52:54;23.60;91.70
56753;DHT22;42627;42.646;23.642;2022-07-06T09:54:55;23.60;90.70
56753;DHT22;42627;42.646;23.642;2022-07-06T09:56:58;23.70;95.60
56753;DHT22;42627;42.646;23.642;2022-07-06T09:58:58;23.70;90.50
56753;DHT22;42627;42.646;23.642;2022-07-06T10:01:01;23.80;90.30
56753;DHT22;42627;42.646;23.642;2022-07-06T10:03:01;23.80;90.00
56753;DHT22;42627;42.646;23.642;2022-07-06T10:05:03;23.80;89.20
56753;DHT22;42627;42.646;23.642;2022-07-06T10:07:05;23.70;90.20
56753;DHT22;42627;42.646;23.642;2022-07-06T10:09:08;23.60;90.80
56753;DHT22;42627;42.646;23.642;2022-07-06T10:11:25;23.60;92.00
56753;DHT22;42627;42.646;23.642;2022-07-06T10:13:37;23.60;90.30
56753;DHT22;42627;42.646;23.642;2022-07-06T10:15:40;23.60;91.00
56753;DHT22;42627;42.646;23.642;2022-07-06T10:17:41;23.60;92.00
56753;DHT22;42627;42.646;23.642;2022-07-06T10:19:42;23.60;90.90
56753;DHT22;42627;42.646;23.642;2022-07-06T10:21:44;23.50;90.90
56753;DHT22;42627;42.646;23.642;2022-07-06T10:23:45;23.50;90.40
56753;DHT22;42627;42.646;23.642;2022-07-06T10:25:47;23.50;90.20
56753;DHT22;42627;42.646;23.642;2022-07-06T10:27:48;23.60;89.90
56753;DHT22;42627;42.646;23.642;2022-07-06T10:29:54;23.60;92.30
56753;DHT22;42627;42.646;23.642;2022-07-06T10:31:57;23.60;90.10
56753;DHT22;42627;42.646;23.642;2022-07-06T10:34:03;23.70;90.10
56753;DHT22;42627;42.646;23.642;2022-07-06T10:36:05;23.60;89.30
56753;DHT22;42627;42.646;23.642;2022-07-06T10:38:08;23.60;90.40
56753;DHT22;42627;42.646;23.642;2022-07-06T10:41:05;23.70;92.10
56753;DHT22;42627;42.646;23.642;2022-07-06T10:43:19;23.70;88.00
56753;DHT22;42627;42.646;23.642;2022-07-06T10:47:27;23.60;89.10
56753;DHT22;42627;42.646;23.642;2022-07-06T10:49:28;23.60;90.50
56753;DHT22;42627;42.646;23.642;2022-07-06T10:51:29;23.60;90.20
56753;DHT22;42627;42.646;23.642;2022-07-06T10:53:34;23.50;87.80
56753;DHT22;42627;42.646;23.642;2022-07-06T10:55:37;23.40;89.20
56753;DHT22;42627;42.646;23.642;2022-07-06T10:57:52;23.40;91.70
56753;DHT22;42627;42.646;23.642;2022-07-06T11:00:04;23.50;94.90
56753;DHT22;42627;42.646;23.642;2022-07-06T11:02:16;23.70;91.00
56753;DHT22;42627;42.646;23.642;2022-07-06T11:04:16;23.70;91.30
56753;DHT22;42627;42.646;23.642;2022-07-06T11:06:22;23.90;88.10
56753;DHT22;42627;42.646;23.642;2022-07-06T11:08:23;23.80;90.10
56753;DHT22;42627;42.646;23.642;2022-07-06T11:10:47;23.70;86.80
56753;DHT22;42627;42.646;23.642;2022-07-06T11:12:59;23.70;91.50
56753;DHT22;42627;42.646;23.642;2022-07-06T11:17:11;23.90;87.90
56753;DHT22;42627;42.646;23.642;2022-07-06T11:19:16;24.00;90.10
56753;DHT22;42627;42.646;23.642;2022-07-06T11:21:22;24.10;89.70
56753;DHT22;42627;42.646;23.642;2022-07-06T11:23:23;24.20;85.20
56753;DHT22;42627;42.646;23.642;2022-07-06T11:25:24;24.20;85.90
56753;DHT22;42627;42.646;23.642;2022-07-06T11:27:25;24.20;86.10
56753;DHT22;42627;42.646;23.642;2022-07-06T11:29:28;24.20;85.70
56753;DHT22;42627;42.646;23.642;2022-07-06T11:31:53;24.10;84.10
56753;DHT22;42627;42.646;23.642;2022-07-06T11:34:07;24.10;84.10
56753;DHT22;42627;42.646;23.642;2022-07-06T11:36:13;24.10;83.50
56753;DHT22;42627;42.646;23.642;2022-07-06T11:38:31;24.10;80.80
56753;DHT22;42627;42.646;23.642;2022-07-06T11:40:37;24.10;81.20
56753;DHT22;42627;42.646;23.642;2022-07-06T11:42:37;24.10;82.80
56753;DHT22;42627;42.646;23.642;2022-07-06T11:44:40;24.10;81.40
56753;DHT22;42627;42.646;23.642;2022-07-06T11:46:41;24.20;81.10
56753;DHT22;42627;42.646;23.642;2022-07-06T11:48:50;24.20;84.60
56753;DHT22;42627;42.646;23.642;2022-07-06T11:51:13;24.30;79.40
56753;DHT22;42627;42.646;23.642;2022-07-06T11:53:15;24.20;78.50
56753;DHT22;42627;42.646;23.642;2022-07-06T11:55:15;24.20;83.30
56753;DHT22;42627;42.646;23.642;2022-07-06T11:57:16;24.30;82.90
56753;DHT22;42627;42.646;23.642;2022-07-06T11:59:23;24.30;78.10
56753;DHT22;42627;42.646;23.642;2022-07-06T12:01:26;24.20;82.40
56753;DHT22;42627;42.646;23.642;2022-07-06T12:03:27;24.30;77.70
56753;DHT22;42627;42.646;23.642;2022-07-06T12:05:54;24.30;79.80
56753;DHT22;42627;42.646;23.642;2022-07-06T12:08:15;24.30;76.10
56753;DHT22;42627;42.646;23.642;2022-07-06T12:10:34;24.30;76.80
56753;DHT22;42627;42.646;23.642;2022-07-06T12:12:38;24.30;78.20
56753;DHT22;42627;42.646;23.642;2022-07-06T12:14:40;24.40;77.90
56753;DHT22;42627;42.646;23.642;2022-07-06T12:16:41;24.50;74.30
56753;DHT22;42627;42.646;23.642;2022-07-06T12:18:44;24.50;74.80
56753;DHT22;42627;42.646;23.642;2022-07-06T12:20:45;24.50;77.00
56753;DHT22;42627;42.646;23.642;2022-07-06T12:22:45;24.40;73.90
56753;DHT22;42627;42.646;23.642;2022-07-06T12:24:46;24.30;74.60
56753;DHT22;42627;42.646;23.642;2022-07-06T12:26:50;24.30;76.30
56753;DHT22;42627;42.646;23.642;2022-07-06T12:29:02;24.20;77.80
56753;DHT22;42627;42.646;23.642;2022-07-06T12:31:04;24.30;78.20
56753;DHT22;42627;42.646;23.642;2022-07-06T12:33:17;24.20;82.60
56753;DHT22;42627;42.646;23.642;2022-07-06T12:35:22;24.10;84.70
56753;DHT22;42627;42.646;23.642;2022-07-06T12:37:23;24.10;87.80
56753;DHT22;42627;42.646;23.642;2022-07-06T12:39:26;24.00;85.40
56753;DHT22;42627;42.646;23.642;2022-07-06T12:41:33;23.90;84.90
56753;DHT22;42627;42.646;23.642;2022-07-06T12:43:43;23.80;85.50
56753;DHT22;42627;42.646;23.642;2022-07-06T12:45:44;23.80;86.90
56753;DHT22;42627;42.646;23.642;2022-07-06T12:47:59;23.80;88.40
56753;DHT22;42627;42.646;23.642;2022-07-06T12:52:09;23.70;84.90
56753;DHT22;42627;42.646;23.642;2022-07-06T12:54:14;23.70;87.20
56753;DHT22;42627;42.646;23.642;2022-07-06T12:56:17;23.70;87.70
56753;DHT22;42627;42.646;23.642;2022-07-06T12:58:19;23.70;88.20
56753;DHT22;42627;42.646;23.642;2022-07-06T13:00:20;23.70;87.70
56753;DHT22;42627;42.646;23.642;2022-07-06T13:02:34;23.70;89.20
56753;DHT22;42627;42.646;23.642;2022-07-06T13:04:39;23.70;85.50
56753;DHT22;42627;42.646;23.642;2022-07-06T13:06:39;23.70;88.10
56753;DHT22;42627;42.646;23.642;2022-07-06T13:10:57;23.70;88.90
56753;DHT22;42627;42.646;23.642;2022-07-06T13:12:58;23.70;87.60
56753;DHT22;42627;42.646;23.642;2022-07-06T13:14:59;23.70;88.00
56753;DHT22;42627;42.646;23.642;2022-07-06T13:17:02;23.70;87.80
56753;DHT22;42627;42.646;23.642;2022-07-06T13:19:03;23.70;87.40